BAW8ER EIDW-EGLL
Flight info
| Callsign | BAW8ER |
|---|---|
| Flight time | 0h 49m |
| Altitude | 33000 |
| Route | ENDEQ1E ENDEQ Q36 NUGRA |
| Aircraft | A319/M-SDE3FGHIRWY/LB1 |
Departure
| Time | 2026-05-07 11:53 |
|---|---|
| Airport | Dublin Airport (EIDW) |
Arrival
| Time | 2026-05-07 12:43 |
|---|---|
| Airport | London Heathrow Airport (EGLL) |
| Time | Latitude | Longitude | Altitude | Speed | Heading |
|---|---|---|---|---|---|
| 2026-05-07 11:20 | 53.42831 | -6.24854 | 211 ft | 0 kts | 134° |
| 2026-05-07 11:43 | 53.42833 | -6.24857 | 211 ft | 2 kts | 134° |
| 2026-05-07 11:43 | 53.42852 | -6.24888 | 214 ft | 4 kts | 140° |
| 2026-05-07 11:43 | 53.42874 | -6.24914 | 214 ft | 4 kts | 162° |
| 2026-05-07 11:43 | 53.42894 | -6.24914 | 211 ft | 1 kts | 227° |
| 2026-05-07 11:44 | 53.42894 | -6.24913 | 211 ft | 0 kts | 227° |
| 2026-05-07 11:46 | 53.42888 | -6.24924 | 212 ft | 3 kts | 227° |
| 2026-05-07 11:47 | 53.42869 | -6.24959 | 211 ft | 5 kts | 227° |
| 2026-05-07 11:47 | 53.42836 | -6.25017 | 211 ft | 8 kts | 223° |
| 2026-05-07 11:47 | 53.42781 | -6.25082 | 211 ft | 11 kts | 223° |
| 2026-05-07 11:47 | 53.42721 | -6.25190 | 211 ft | 14 kts | 229° |
| 2026-05-07 11:48 | 53.42644 | -6.25315 | 211 ft | 17 kts | 223° |
| 2026-05-07 11:48 | 53.42552 | -6.25470 | 210 ft | 20 kts | 227° |
| 2026-05-07 11:48 | 53.42450 | -6.25647 | 216 ft | 23 kts | 225° |
| 2026-05-07 11:48 | 53.42338 | -6.25839 | 211 ft | 20 kts | 226° |
| 2026-05-07 11:49 | 53.42271 | -6.25962 | 211 ft | 14 kts | 234° |
| 2026-05-07 11:49 | 53.42258 | -6.26142 | 211 ft | 17 kts | 273° |
| 2026-05-07 11:49 | 53.42269 | -6.26354 | 211 ft | 20 kts | 277° |
| 2026-05-07 11:49 | 53.42284 | -6.26596 | 211 ft | 22 kts | 275° |
| 2026-05-07 11:50 | 53.42297 | -6.26867 | 211 ft | 25 kts | 274° |
| 2026-05-07 11:50 | 53.42313 | -6.27167 | 211 ft | 27 kts | 276° |
| 2026-05-07 11:50 | 53.42331 | -6.27474 | 211 ft | 26 kts | 275° |
| 2026-05-07 11:50 | 53.42350 | -6.27788 | 216 ft | 27 kts | 275° |
| 2026-05-07 11:51 | 53.42366 | -6.28114 | 216 ft | 29 kts | 275° |
| 2026-05-07 11:51 | 53.42382 | -6.28424 | 211 ft | 26 kts | 276° |
| 2026-05-07 11:51 | 53.42399 | -6.28708 | 211 ft | 19 kts | 274° |
| 2026-05-07 11:51 | 53.42406 | -6.28881 | 211 ft | 15 kts | 274° |
| 2026-05-07 11:52 | 53.42379 | -6.29049 | 211 ft | 16 kts | 218° |
| 2026-05-07 11:52 | 53.42280 | -6.29067 | 210 ft | 15 kts | 177° |
| 2026-05-07 11:52 | 53.42239 | -6.28945 | 210 ft | 20 kts | 96° |
| 2026-05-07 11:52 | 53.42209 | -6.28399 | 213 ft | 77 kts | 95° |
| 2026-05-07 11:53 | 53.42140 | -6.27172 | 210 ft | 133 kts | 95° |
| 2026-05-07 11:53 | 53.42039 | -6.25463 | 646 ft | 144 kts | 97° |
| 2026-05-07 11:53 | 53.41948 | -6.23781 | 1280 ft | 147 kts | 99° |
| 2026-05-07 11:53 | 53.41849 | -6.22051 | 1837 ft | 150 kts | 99° |
| 2026-05-07 11:54 | 53.41734 | -6.20186 | 2227 ft | 173 kts | 99° |
| 2026-05-07 11:54 | 53.41602 | -6.18040 | 2642 ft | 197 kts | 98° |
| 2026-05-07 11:54 | 53.41465 | -6.15633 | 3116 ft | 221 kts | 98° |
| 2026-05-07 11:54 | 53.41318 | -6.12918 | 3697 ft | 246 kts | 97° |
| 2026-05-07 11:55 | 53.41160 | -6.09930 | 4475 ft | 264 kts | 97° |
| 2026-05-07 11:55 | 53.40995 | -6.06821 | 5512 ft | 270 kts | 97° |
| 2026-05-07 11:55 | 53.40923 | -6.03671 | 6527 ft | 279 kts | 88° |
| 2026-05-07 11:55 | 53.41125 | -6.00412 | 7524 ft | 283 kts | 85° |
| 2026-05-07 11:56 | 53.41361 | -5.97094 | 8525 ft | 288 kts | 85° |
| 2026-05-07 11:56 | 53.41607 | -5.93721 | 9519 ft | 293 kts | 85° |
| 2026-05-07 11:56 | 53.41850 | -5.90330 | 10273 ft | 305 kts | 86° |
| 2026-05-07 11:56 | 53.42107 | -5.86641 | 10643 ft | 329 kts | 85° |
| 2026-05-07 11:57 | 53.42377 | -5.82716 | 11140 ft | 345 kts | 85° |
| 2026-05-07 11:57 | 53.42654 | -5.78676 | 11909 ft | 351 kts | 85° |
| 2026-05-07 11:57 | 53.42934 | -5.74579 | 12739 ft | 355 kts | 85° |
| 2026-05-07 11:57 | 53.43211 | -5.70491 | 13548 ft | 359 kts | 85° |
| 2026-05-07 11:58 | 53.43494 | -5.66301 | 14292 ft | 363 kts | 85° |
| 2026-05-07 11:58 | 53.43779 | -5.62066 | 15004 ft | 367 kts | 85° |
| 2026-05-07 11:58 | 53.44062 | -5.57785 | 15716 ft | 371 kts | 85° |
| 2026-05-07 11:58 | 53.44345 | -5.53453 | 16429 ft | 375 kts | 85° |
| 2026-05-07 11:59 | 53.44544 | -5.49066 | 17139 ft | 377 kts | 92° |
| 2026-05-07 11:59 | 53.44438 | -5.44684 | 18024 ft | 376 kts | 95° |
| 2026-05-07 11:59 | 53.44325 | -5.40284 | 18713 ft | 379 kts | 94° |
| 2026-05-07 11:59 | 53.44219 | -5.35912 | 19360 ft | 381 kts | 94° |
| 2026-05-07 12:00 | 53.44112 | -5.31443 | 20031 ft | 384 kts | 95° |
| 2026-05-07 12:00 | 53.44000 | -5.26947 | 20695 ft | 387 kts | 95° |
| 2026-05-07 12:00 | 53.43882 | -5.22425 | 21339 ft | 389 kts | 95° |
| 2026-05-07 12:00 | 53.43764 | -5.17869 | 21978 ft | 392 kts | 95° |
| 2026-05-07 12:01 | 53.43641 | -5.13282 | 22613 ft | 395 kts | 95° |
| 2026-05-07 12:01 | 53.43503 | -5.08665 | 23236 ft | 397 kts | 96° |
| 2026-05-07 12:01 | 53.43355 | -5.04075 | 23796 ft | 400 kts | 96° |
| 2026-05-07 12:01 | 53.43200 | -4.99391 | 24304 ft | 403 kts | 96° |
| 2026-05-07 12:02 | 53.43044 | -4.94695 | 24811 ft | 405 kts | 96° |
| 2026-05-07 12:02 | 53.42889 | -4.89966 | 25313 ft | 407 kts | 96° |
| 2026-05-07 12:02 | 53.42732 | -4.85217 | 25813 ft | 409 kts | 96° |
| 2026-05-07 12:02 | 53.42575 | -4.80437 | 26306 ft | 411 kts | 96° |
| 2026-05-07 12:03 | 53.42416 | -4.75616 | 26797 ft | 413 kts | 96° |
| 2026-05-07 12:03 | 53.42253 | -4.70782 | 27277 ft | 416 kts | 96° |
| 2026-05-07 12:03 | 53.42089 | -4.65994 | 27750 ft | 418 kts | 96° |
| 2026-05-07 12:03 | 53.41917 | -4.61103 | 28235 ft | 421 kts | 96° |
| 2026-05-07 12:04 | 53.41745 | -4.56193 | 28722 ft | 423 kts | 96° |
| 2026-05-07 12:04 | 53.41572 | -4.51260 | 29186 ft | 425 kts | 96° |
| 2026-05-07 12:04 | 53.41395 | -4.46289 | 29642 ft | 428 kts | 96° |
| 2026-05-07 12:04 | 53.41213 | -4.41283 | 30084 ft | 430 kts | 96° |
| 2026-05-07 12:05 | 53.41031 | -4.36334 | 30453 ft | 432 kts | 96° |
| 2026-05-07 12:05 | 53.40843 | -4.31292 | 30835 ft | 434 kts | 96° |
| 2026-05-07 12:05 | 53.40651 | -4.26238 | 31209 ft | 435 kts | 96° |
| 2026-05-07 12:05 | 53.40457 | -4.21160 | 31576 ft | 437 kts | 96° |
| 2026-05-07 12:06 | 53.40262 | -4.16059 | 31967 ft | 438 kts | 96° |
| 2026-05-07 12:06 | 53.40066 | -4.10977 | 32488 ft | 435 kts | 96° |
| 2026-05-07 12:06 | 53.39870 | -4.05930 | 32913 ft | 434 kts | 96° |
| 2026-05-07 12:07 | 53.39481 | -3.96080 | 33019 ft | 414 kts | 96° |
| 2026-05-07 12:07 | 53.39100 | -3.86564 | 33021 ft | 407 kts | 96° |
| 2026-05-07 12:08 | 53.38700 | -3.77034 | 33022 ft | 416 kts | 96° |
| 2026-05-07 12:08 | 53.38230 | -3.67310 | 33021 ft | 419 kts | 101° |
| 2026-05-07 12:09 | 53.36535 | -3.58103 | 33027 ft | 416 kts | 115° |
| 2026-05-07 12:09 | 53.34234 | -3.49196 | 33025 ft | 416 kts | 115° |
| 2026-05-07 12:10 | 53.31948 | -3.40286 | 33035 ft | 416 kts | 114° |
| 2026-05-07 12:10 | 53.29662 | -3.31395 | 33037 ft | 416 kts | 114° |
| 2026-05-07 12:11 | 53.27367 | -3.22531 | 33039 ft | 415 kts | 114° |
| 2026-05-07 12:11 | 53.25077 | -3.13723 | 33042 ft | 415 kts | 114° |
| 2026-05-07 12:12 | 53.22769 | -3.04878 | 33043 ft | 416 kts | 115° |
| 2026-05-07 12:12 | 53.20454 | -2.96035 | 33044 ft | 416 kts | 115° |
| 2026-05-07 12:13 | 53.18130 | -2.87192 | 33046 ft | 416 kts | 115° |
| 2026-05-07 12:13 | 53.15803 | -2.78369 | 33049 ft | 416 kts | 115° |
| 2026-05-07 12:14 | 53.13457 | -2.69555 | 33050 ft | 415 kts | 115° |
| 2026-05-07 12:14 | 53.11113 | -2.60764 | 33049 ft | 415 kts | 115° |
| 2026-05-07 12:15 | 53.08780 | -2.52024 | 33049 ft | 415 kts | 115° |
| 2026-05-07 12:15 | 53.06425 | -2.43259 | 33050 ft | 415 kts | 115° |
| 2026-05-07 12:16 | 53.03918 | -2.34621 | 33050 ft | 414 kts | 123° |
| 2026-05-07 12:16 | 53.00072 | -2.27509 | 33051 ft | 415 kts | 141° |
| 2026-05-07 12:17 | 52.95275 | -2.22291 | 33051 ft | 415 kts | 147° |
| 2026-05-07 12:17 | 52.90379 | -2.17176 | 33050 ft | 415 kts | 146° |
| 2026-05-07 12:18 | 52.85488 | -2.12064 | 33049 ft | 415 kts | 146° |
| 2026-05-07 12:18 | 52.80597 | -2.06964 | 32941 ft | 417 kts | 146° |
| 2026-05-07 12:18 | 52.78137 | -2.04409 | 32657 ft | 417 kts | 147° |
| 2026-05-07 12:19 | 52.75682 | -2.01864 | 32399 ft | 417 kts | 147° |
| 2026-05-07 12:19 | 52.73233 | -1.99327 | 31934 ft | 413 kts | 147° |
| 2026-05-07 12:19 | 52.71622 | -1.97664 | 31553 ft | 412 kts | 147° |
| 2026-05-07 12:19 | 52.68378 | -1.94314 | 30818 ft | 409 kts | 147° |
| 2026-05-07 12:20 | 52.66788 | -1.92671 | 30438 ft | 407 kts | 147° |
| 2026-05-07 12:20 | 52.63614 | -1.89395 | 29623 ft | 404 kts | 147° |
| 2026-05-07 12:20 | 52.61240 | -1.86946 | 29069 ft | 400 kts | 147° |
| 2026-05-07 12:20 | 52.58882 | -1.84516 | 28511 ft | 397 kts | 147° |
| 2026-05-07 12:21 | 52.57310 | -1.82896 | 28131 ft | 394 kts | 147° |
| 2026-05-07 12:21 | 52.54991 | -1.80511 | 27582 ft | 391 kts | 148° |
| 2026-05-07 12:21 | 52.52691 | -1.78152 | 27029 ft | 388 kts | 148° |
| 2026-05-07 12:21 | 52.50401 | -1.75811 | 26492 ft | 386 kts | 148° |
| 2026-05-07 12:22 | 52.48154 | -1.73516 | 25955 ft | 384 kts | 148° |
| 2026-05-07 12:22 | 52.45882 | -1.71201 | 25421 ft | 383 kts | 148° |
| 2026-05-07 12:22 | 52.43615 | -1.68894 | 24883 ft | 382 kts | 149° |
| 2026-05-07 12:22 | 52.41357 | -1.66594 | 24364 ft | 381 kts | 149° |
| 2026-05-07 12:23 | 52.39104 | -1.64297 | 23838 ft | 381 kts | 149° |
| 2026-05-07 12:23 | 52.36858 | -1.62006 | 23300 ft | 379 kts | 149° |
| 2026-05-07 12:23 | 52.34651 | -1.59759 | 22798 ft | 376 kts | 149° |
| 2026-05-07 12:23 | 52.32439 | -1.57516 | 22336 ft | 372 kts | 149° |
| 2026-05-07 12:24 | 52.30245 | -1.55297 | 21885 ft | 368 kts | 149° |
| 2026-05-07 12:24 | 52.28087 | -1.53113 | 21446 ft | 363 kts | 149° |
| 2026-05-07 12:24 | 52.25949 | -1.50948 | 21003 ft | 358 kts | 149° |
| 2026-05-07 12:24 | 52.23840 | -1.48820 | 20544 ft | 355 kts | 150° |
| 2026-05-07 12:25 | 52.21786 | -1.46687 | 20090 ft | 353 kts | 146° |
| 2026-05-07 12:25 | 52.19860 | -1.44102 | 19725 ft | 367 kts | 141° |
| 2026-05-07 12:25 | 52.17906 | -1.41358 | 19350 ft | 373 kts | 141° |
| 2026-05-07 12:25 | 52.15934 | -1.38600 | 18972 ft | 373 kts | 141° |
| 2026-05-07 12:26 | 52.13966 | -1.35862 | 18592 ft | 372 kts | 141° |
| 2026-05-07 12:26 | 52.11999 | -1.33131 | 18188 ft | 370 kts | 141° |
| 2026-05-07 12:26 | 52.10040 | -1.30417 | 17791 ft | 368 kts | 141° |
| 2026-05-07 12:26 | 52.08092 | -1.27710 | 17419 ft | 366 kts | 141° |
| 2026-05-07 12:27 | 52.06190 | -1.25067 | 17051 ft | 363 kts | 141° |
| 2026-05-07 12:27 | 52.04272 | -1.22404 | 16690 ft | 361 kts | 141° |
| 2026-05-07 12:27 | 52.02363 | -1.19757 | 16300 ft | 359 kts | 141° |
| 2026-05-07 12:27 | 52.00472 | -1.17140 | 15937 ft | 357 kts | 141° |
| 2026-05-07 12:28 | 51.98586 | -1.14534 | 15580 ft | 355 kts | 141° |
| 2026-05-07 12:28 | 51.96716 | -1.11951 | 15219 ft | 352 kts | 141° |
| 2026-05-07 12:28 | 51.94853 | -1.09380 | 14771 ft | 351 kts | 141° |
| 2026-05-07 12:28 | 51.93007 | -1.06840 | 14277 ft | 346 kts | 140° |
| 2026-05-07 12:29 | 51.91178 | -1.04328 | 13694 ft | 344 kts | 140° |
| 2026-05-07 12:29 | 51.89360 | -1.01834 | 13077 ft | 341 kts | 140° |
| 2026-05-07 12:29 | 51.87560 | -0.99361 | 12594 ft | 335 kts | 140° |
| 2026-05-07 12:29 | 51.85892 | -0.96984 | 12446 ft | 311 kts | 134° |
| 2026-05-07 12:30 | 51.84693 | -0.94241 | 12315 ft | 290 kts | 117° |
| 2026-05-07 12:30 | 51.83832 | -0.91397 | 12174 ft | 273 kts | 117° |
| 2026-05-07 12:30 | 51.83006 | -0.88694 | 11844 ft | 265 kts | 117° |
| 2026-05-07 12:30 | 51.82191 | -0.86040 | 11421 ft | 262 kts | 117° |
| 2026-05-07 12:31 | 51.81384 | -0.83406 | 11008 ft | 260 kts | 117° |
| 2026-05-07 12:31 | 51.80581 | -0.80785 | 10640 ft | 259 kts | 117° |
| 2026-05-07 12:31 | 51.79782 | -0.78183 | 10294 ft | 258 kts | 117° |
| 2026-05-07 12:31 | 51.78988 | -0.75602 | 9969 ft | 256 kts | 117° |
| 2026-05-07 12:32 | 51.78196 | -0.73031 | 9582 ft | 255 kts | 117° |
| 2026-05-07 12:32 | 51.77418 | -0.70502 | 9155 ft | 255 kts | 117° |
| 2026-05-07 12:32 | 51.76634 | -0.67953 | 8805 ft | 252 kts | 117° |
| 2026-05-07 12:32 | 51.75855 | -0.65422 | 8468 ft | 250 kts | 117° |
| 2026-05-07 12:33 | 51.74323 | -0.60460 | 7666 ft | 243 kts | 118° |
| 2026-05-07 12:33 | 51.73562 | -0.58008 | 7313 ft | 243 kts | 118° |
| 2026-05-07 12:33 | 51.72710 | -0.55641 | 7125 ft | 261 kts | 132° |
| 2026-05-07 12:34 | 51.71238 | -0.53967 | 7062 ft | 255 kts | 162° |
| 2026-05-07 12:34 | 51.69544 | -0.53731 | 7066 ft | 240 kts | 193° |
| 2026-05-07 12:34 | 51.68073 | -0.54855 | 6925 ft | 233 kts | 217° |
| 2026-05-07 12:34 | 51.66808 | -0.56484 | 6644 ft | 233 kts | 221° |
| 2026-05-07 12:35 | 51.65570 | -0.58158 | 6296 ft | 232 kts | 221° |
| 2026-05-07 12:35 | 51.64341 | -0.59832 | 5924 ft | 230 kts | 221° |
| 2026-05-07 12:35 | 51.63120 | -0.61499 | 5567 ft | 229 kts | 221° |
| 2026-05-07 12:35 | 51.61906 | -0.63156 | 5199 ft | 228 kts | 221° |
| 2026-05-07 12:36 | 51.60702 | -0.64797 | 4799 ft | 226 kts | 221° |
| 2026-05-07 12:36 | 51.59504 | -0.66430 | 4407 ft | 225 kts | 221° |
| 2026-05-07 12:36 | 51.58308 | -0.68071 | 4056 ft | 225 kts | 221° |
| 2026-05-07 12:36 | 51.57137 | -0.69688 | 4005 ft | 225 kts | 221° |
| 2026-05-07 12:37 | 51.55946 | -0.71330 | 4001 ft | 226 kts | 221° |
| 2026-05-07 12:37 | 51.54747 | -0.72980 | 4003 ft | 226 kts | 221° |
| 2026-05-07 12:37 | 51.53547 | -0.74629 | 4002 ft | 227 kts | 221° |
| 2026-05-07 12:37 | 51.52359 | -0.76239 | 3867 ft | 218 kts | 217° |
| 2026-05-07 12:38 | 51.51020 | -0.77071 | 3725 ft | 200 kts | 186° |
| 2026-05-07 12:38 | 51.49683 | -0.76979 | 3495 ft | 189 kts | 161° |
| 2026-05-07 12:38 | 51.48569 | -0.75977 | 3253 ft | 186 kts | 136° |
| 2026-05-07 12:38 | 51.47822 | -0.74239 | 3261 ft | 190 kts | 111° |
| 2026-05-07 12:39 | 51.47630 | -0.72187 | 3026 ft | 189 kts | 84° |
| 2026-05-07 12:39 | 51.48022 | -0.70179 | 2795 ft | 188 kts | 72° |
| 2026-05-07 12:39 | 51.47937 | -0.68134 | 2568 ft | 187 kts | 110° |
| 2026-05-07 12:39 | 51.47578 | -0.66144 | 2301 ft | 185 kts | 91° |
| 2026-05-07 12:40 | 51.47685 | -0.64114 | 2062 ft | 180 kts | 88° |
| 2026-05-07 12:40 | 51.47693 | -0.62136 | 1827 ft | 174 kts | 90° |
| 2026-05-07 12:40 | 51.47697 | -0.60259 | 1596 ft | 168 kts | 90° |
| 2026-05-07 12:40 | 51.47705 | -0.58403 | 1368 ft | 165 kts | 90° |
| 2026-05-07 12:41 | 51.47713 | -0.56565 | 1146 ft | 163 kts | 89° |
| 2026-05-07 12:41 | 51.47721 | -0.54808 | 915 ft | 152 kts | 89° |
| 2026-05-07 12:41 | 51.47729 | -0.53184 | 735 ft | 137 kts | 90° |
| 2026-05-07 12:41 | 51.47732 | -0.51694 | 492 ft | 128 kts | 91° |
| 2026-05-07 12:42 | 51.47738 | -0.50272 | 334 ft | 127 kts | 90° |
| 2026-05-07 12:42 | 51.47755 | -0.48870 | 142 ft | 125 kts | 92° |
| 2026-05-07 12:42 | 51.47752 | -0.47539 | 85 ft | 104 kts | 91° |
| 2026-05-07 12:42 | 51.47756 | -0.46656 | 90 ft | 55 kts | 89° |
| 2026-05-07 12:43 | 51.47755 | -0.46236 | 87 ft | 23 kts | 106° |
| 2026-05-07 12:43 | 51.47666 | -0.46104 | 90 ft | 6 kts | 147° |
| 2026-05-07 12:43 | 51.47644 | -0.46081 | 88 ft | 1 kts | 146° |
| 2026-05-07 12:43 | 51.47627 | -0.46070 | 87 ft | 4 kts | 166° |
| 2026-05-07 12:44 | 51.47592 | -0.46089 | 90 ft | 7 kts | 228° |
| 2026-05-07 12:44 | 51.47589 | -0.46167 | 87 ft | 7 kts | 276° |
| 2026-05-07 12:44 | 51.47593 | -0.46240 | 87 ft | 7 kts | 270° |
| 2026-05-07 12:44 | 51.47593 | -0.46326 | 87 ft | 9 kts | 270° |
| 2026-05-07 12:45 | 51.47592 | -0.46443 | 87 ft | 12 kts | 269° |
| 2026-05-07 12:45 | 51.47591 | -0.46571 | 87 ft | 11 kts | 270° |
| 2026-05-07 12:45 | 51.47591 | -0.46699 | 87 ft | 12 kts | 270° |
| 2026-05-07 12:45 | 51.47587 | -0.46845 | 87 ft | 14 kts | 260° |
| 2026-05-07 12:46 | 51.47582 | -0.47018 | 87 ft | 16 kts | 270° |
| 2026-05-07 12:46 | 51.47582 | -0.47198 | 91 ft | 16 kts | 269° |
| 2026-05-07 12:46 | 51.47580 | -0.47378 | 89 ft | 16 kts | 269° |
| 2026-05-07 12:46 | 51.47580 | -0.47575 | 87 ft | 19 kts | 270° |
| 2026-05-07 12:47 | 51.47579 | -0.47790 | 87 ft | 19 kts | 270° |
| 2026-05-07 12:47 | 51.47579 | -0.48004 | 88 ft | 19 kts | 269° |
| 2026-05-07 12:47 | 51.47578 | -0.48220 | 89 ft | 19 kts | 270° |
| 2026-05-07 12:47 | 51.47575 | -0.48419 | 88 ft | 16 kts | 262° |
| 2026-05-07 12:48 | 51.47486 | -0.48477 | 87 ft | 17 kts | 178° |
| 2026-05-07 12:48 | 51.47361 | -0.48478 | 87 ft | 18 kts | 179° |
| 2026-05-07 12:48 | 51.47232 | -0.48477 | 87 ft | 19 kts | 180° |
| 2026-05-07 12:48 | 51.47100 | -0.48475 | 87 ft | 18 kts | 179° |
| 2026-05-07 12:49 | 51.46976 | -0.48473 | 87 ft | 17 kts | 179° |
| 2026-05-07 12:49 | 51.46915 | -0.48470 | 88 ft | 7 kts | 178° |
| 2026-05-07 12:49 | 51.46879 | -0.48505 | 88 ft | 9 kts | 257° |
| 2026-05-07 12:49 | 51.46876 | -0.48615 | 87 ft | 10 kts | 270° |
| 2026-05-07 12:50 | 51.46876 | -0.48724 | 87 ft | 10 kts | 270° |
| 2026-05-07 12:50 | 51.46876 | -0.48832 | 87 ft | 10 kts | 271° |
| 2026-05-07 12:50 | 51.46922 | -0.48861 | 87 ft | 4 kts | 2° |
| 2026-05-07 12:50 | 51.46928 | -0.48862 | 87 ft | 0 kts | 356° |
| 2026-05-07 12:51 | 51.46929 | -0.48861 | 87 ft | 0 kts | 360° |